Latest Coastal Weather Observations for Merimbula

IDN60701

Issued at 4:32 pm EST Sunday 10 May 2026 (issued every 10 minutes, with the page automatically refreshed every 10 minutes)

About coastal observations | Map of coastal stations | Coastal observations for NSW | Marine services | Other Formats
Station Details ID: 069147 Name: MERIMBULA AIRPORT AWS Lat: -36.91 Lon: 149.90 Height: 1.5 m
Data from the previous 72 hours. | See also: Recent months at Merimbula
Date/Time
EST
Wind Sea
Height
m
Swell Vis
km
Cloud Weather Temp
°C
Press
MSL
hPa
Rain since
9am
mm
Dir  Spd
kts
Gust
kts
Height
m
Period
s
Dir
10/04:30pm SE 6 9 - - - - 10 Cloudy - 17.8 1030.4 0.0
10/04:00pm ESE 6 11 - - - - 10 Cloudy - 18.2 1030.2 0.0
10/03:30pm SE 6 10 - - - - 10 Cloudy - 19.2 1030.0 0.0
10/03:00pm ESE 4 7 - - - - 10 Mostly cloudy - 19.8 1029.7 0.0
10/02:30pm ESE 4 8 - - - - 10 Cloudy - 20.6 1029.4 0.0
10/02:00pm ESE 5 7 - - - - 10 Partly cloudy - 21.6 1029.3 0.0
10/01:30pm SE 4 6 - - - - 10 - - 20.4 1029.2 0.0
10/01:00pm SW 5 9 - - - - 10 - - 19.9 1029.3 0.0
10/12:30pm S 5 10 - - - - 10 - - 19.6 1029.5 0.0
10/12:00pm SW 6 8 - - - - 10 - - 19.3 1029.9 0.0
10/11:30am SSW 7 11 - - - - 10 - - 18.7 1030.1 0.0
10/11:00am SW 7 11 - - - - 10 - - 18.4 1030.4 0.0
10/10:30am SW 6 11 - - - - 10 - - 17.4 1030.6 0.0
10/10:00am W 8 13 - - - - 10 Mostly clear - 17.0 1030.5 0.0
10/09:30am WSW 4 6 - - - - 10 Cloudy - 16.3 1030.7 0.0
10/09:00am SW 3 5 - - - - 10 Cloudy - 14.2 1030.6 0.0
10/08:30am W 2 4 - - - - 10 Partly cloudy - 12.5 1030.4 0.0
10/08:00am W 3 5 - - - - 10 - - 9.8 1030.1 0.0
10/07:30am WSW 1 4 - - - - 10 - - 7.1 1029.7 0.0
10/07:00am SW 4 5 - - - - 9 - - 6.4 1029.2 0.0
10/06:30am SW 3 4 - - - - 8 - - 6.2 1028.9 0.0
10/06:00am SW 2 3 - - - - 8 - - 6.3 1028.6 0.0
10/05:30am SW 4 4 - - - - 8 - - 6.7 1028.1 0.0
10/05:00am W 4 5 - - - - 8 - - 7.5 1027.7 0.0
10/04:47am NW 5 6 - - - - 7 - - 7.8 1027.6 0.0
10/04:30am WSW 2 3 - - - - 5 - - 6.7 1027.3 0.0
10/04:29am WSW 2 4 - - - - 5 - - 6.8 1027.3 0.0
10/04:00am SW 4 5 - - - - 9 - - 7.1 1027.0 0.0
10/03:30am SW 3 4 - - - - 8 - - 7.3 1026.8 0.0
10/03:00am SSW 5 5 - - - - 9 - - 7.6 1026.8 0.0
10/02:30am SW 3 4 - - - - 7 - - 7.5 1026.8 0.0
10/02:00am SW 4 4 - - - - 9 - - 7.9 1026.9 0.0
10/01:30am SW 4 5 - - - - 8 - - 8.0 1026.8 0.0
10/01:00am W 3 3 - - - - 7 - - 8.2 1026.6 0.0
10/12:30am WSW 3 3 - - - - 9 - - 8.1 1026.6 0.0
10/12:00am SW 3 4 - - - - 9 - - 8.8 1026.5 0.0
 
Date/Time
EST
Wind Sea
Height
m
Swell Vis
km
Cloud Weather Temp
°C
Press
MSL
hPa
Rain since
9am
mm
Dir  Spd
kts
Gust
kts
Height
m
Period
s
Dir
09/11:30pm SSW 4 5 - - - - 9 - - 9.1 1026.4 0.0
09/11:00pm SSW 4 5 - - - - 9 - - 8.9 1026.2 0.0
09/10:30pm CALM 0 0 - - - - 9 - - 9.0 1026.2 0.0
09/10:00pm SW 2 4 - - - - 9 - - 9.4 1026.3 0.0
09/09:30pm SW 3 4 - - - - 9 - - 9.7 1026.3 0.0
09/09:00pm SW 3 5 - - - - 9 - - 10.0 1026.1 0.0
09/08:30pm W 3 4 - - - - 9 - - 10.4 1025.9 0.0
09/08:00pm W 3 4 - - - - 9 - - 10.6 1025.8 0.0
09/07:30pm W 3 5 - - - - 10 - - 11.5 1025.7 0.0
09/07:00pm WNW 3 5 - - - - 10 - - 12.1 1025.6 0.0
09/06:30pm NW 6 8 - - - - 10 - - 12.7 1025.2 0.0
09/06:00pm SSW 2 3 - - - - 10 - - 12.5 1024.8 0.0
09/05:30pm SSW 2 4 - - - - 10 - - 13.8 1024.3 0.0
09/05:00pm NE 3 4 - - - - 10 - - 15.3 1023.9 0.0
09/04:30pm ESE 2 4 - - - - 10 - - 17.4 1023.8 0.0
09/04:00pm E 3 6 - - - - 10 - - 18.2 1023.5 0.0
09/03:30pm E 4 7 - - - - 10 - - 18.7 1023.5 0.0
09/03:00pm ENE 5 8 - - - - 10 - - 18.7 1023.4 0.0
09/02:30pm E 5 8 - - - - 10 - - 19.2 1023.3 0.0
09/02:00pm E 5 7 - - - - 10 - - 19.4 1023.2 0.0
09/01:30pm ESE 6 9 - - - - 10 - - 19.6 1023.4 0.0
09/01:00pm ESE 4 7 - - - - 10 - - 20.1 1023.7 0.0
09/12:30pm ENE 2 6 - - - - 10 - - 20.1 1023.9 0.0
09/12:00pm NW 4 7 - - - - 10 - - 19.3 1024.3 0.0
09/11:30am NW 6 9 - - - - 10 - - 18.8 1024.7 0.0
09/11:00am WNW 5 8 - - - - 10 - - 18.2 1024.9 0.0
09/10:30am NW 7 10 - - - - 10 - - 17.5 1025.1 0.0
09/10:00am NW 8 11 - - - - 10 - - 17.0 1025.2 0.0
09/09:30am W 5 7 - - - - 10 Cloudy - 16.3 1025.3 0.0
09/09:00am WNW 5 8 - - - - 10 Cloudy - 15.1 1025.4 0.0
09/08:30am WNW 5 6 - - - - 10 Cloudy - 14.6 1025.2 0.0
09/08:00am W 4 6 - - - - 10 Cloudy - 14.2 1024.9 0.0
09/07:30am W 4 6 - - - - 10 Cloudy - 13.9 1024.5 0.0
09/07:00am WNW 5 8 - - - - 10 Cloudy - 13.6 1024.1 0.0
09/06:30am W 3 5 - - - - 10 Cloudy - 12.8 1023.6 0.0
09/06:00am SW 4 5 - - - - 10 Cloudy - 13.3 1023.4 0.0
09/05:30am WNW 4 5 - - - - 10 Cloudy - 13.4 1023.1 0.0
09/05:00am W 4 7 - - - - 9 Cloudy - 12.6 1022.9 0.0
09/04:30am SW 3 8 - - - - 10 Cloudy - 12.0 1022.7 0.0
09/04:00am S 1 3 - - - - 8 Cloudy - 11.1 1022.6 0.0
09/03:30am SW 1 3 - - - - 9 Cloudy - 10.8 1022.3 0.0
09/03:00am SSW 3 5 - - - - 10 Mostly cloudy - 10.6 1022.4 0.0
09/02:30am CALM 0 0 - - - - 10 Partly cloudy - 10.1 1022.3 0.0
09/02:00am WNW 1 4 - - - - 10 - - 10.3 1022.3 0.0
09/01:30am S 1 3 - - - - 9 Partly cloudy - 11.5 1022.0 0.0
09/01:00am WSW 4 6 - - - - 10 Partly cloudy - 13.0 1022.2 0.0
09/12:30am W 3 4 - - - - 10 Partly cloudy - 13.1 1022.1 0.0
09/12:00am SW 5 9 - - - - 10 Cloudy - 13.7 1021.9 0.0
 
Date/Time
EST
Wind Sea
Height
m
Swell Vis
km
Cloud Weather Temp
°C
Press
MSL
hPa
Rain since
9am
mm
Dir  Spd
kts
Gust
kts
Height
m
Period
s
Dir
08/11:30pm SW 7 10 - - - - 10 Partly cloudy - 14.2 1021.8 0.0
08/11:00pm WSW 4 5 - - - - 10 Partly cloudy - 13.4 1021.8 0.0
08/10:30pm WSW 3 4 - - - - 10 Partly cloudy - 13.3 1021.8 0.0
08/10:00pm S 5 8 - - - - 10 Partly cloudy - 13.8 1021.7 0.0
08/09:30pm SSW 6 8 - - - - 10 Partly cloudy - 14.1 1021.6 0.0
08/09:00pm SW 4 8 - - - - 10 Mostly cloudy - 13.8 1021.4 0.0
08/08:30pm S 4 5 - - - - 10 Partly cloudy - 13.7 1021.0 0.0
08/08:00pm WSW 4 6 - - - - 10 Partly cloudy - 13.7 1021.0 0.0
08/07:30pm SSW 6 10 - - - - 10 Partly cloudy - 13.7 1020.4 0.0
08/07:00pm SSW 4 6 - - - - 10 Mostly clear - 13.2 1020.2 0.0
08/06:30pm S 4 5 - - - - 10 Partly cloudy - 12.6 1019.7 0.0
08/06:00pm SW 6 9 - - - - 10 Cloudy Drizzle 12.9 1019.2 0.0
08/05:30pm S 7 11 - - - - 10 Partly cloudy - 14.2 1018.8 0.0
08/05:00pm S 7 11 - - - - 10 Partly cloudy - 14.6 1018.0 0.0
08/04:30pm SSW 11 15 - - - - 10 Mostly clear - 14.1 1017.7 0.0
08/04:00pm SSW 11 16 - - - - 10 Partly cloudy - 16.5 1016.7 0.0
08/03:30pm SW 12 20 - - - - 10 Partly cloudy - 16.8 1016.4 0.0
08/03:00pm WSW 12 23 - - - - 10 Cloudy - 17.7 1015.9 0.0
08/02:30pm WSW 10 19 - - - - 10 Partly cloudy - 19.6 1015.4 0.0
08/02:04pm WSW 15 27 - - - - 10 Cloudy - 17.7 1015.4 0.0
08/02:00pm WSW 11 27 - - - - 10 Cloudy - 17.8 1015.4 0.0
08/01:30pm WSW 13 23 - - - - 10 Cloudy - 17.9 1014.9 0.0
08/01:00pm SW 16 30 - - - - 10 Cloudy - 17.5 1015.0 0.0
08/12:55pm WSW 15 30 - - - - 10 Cloudy - 17.6 1015.0 0.0
08/12:30pm SW 11 21 - - - - 10 Cloudy - 17.8 1015.0 0.0
08/12:15pm WSW 14 28 - - - - 10 Partly cloudy - 17.7 1015.0 0.0
08/12:00pm SW 9 16 - - - - 10 Mostly cloudy - 18.0 1014.8 0.0
08/11:30am WSW 12 21 - - - - 10 Partly cloudy - 18.2 1014.3 0.0
08/11:08am SW 15 31 - - - - 10 Partly cloudy - 17.9 1014.4 0.0
08/11:00am SW 14 23 - - - - 10 Partly cloudy - 18.1 1014.3 0.0
08/10:38am WSW 15 27 - - - - 10 Partly cloudy - 18.6 1014.1 0.0
08/10:30am WSW 14 30 - - - - 10 Partly cloudy - 18.6 1013.9 0.0
08/10:00am WSW 15 27 - - - - 10 Mostly clear - 18.2 1013.7 0.0
08/09:59am WSW 15 27 - - - - 10 Mostly clear - 18.3 1013.7 0.0
08/09:30am WSW 12 24 - - - - 10 Mostly clear - 17.8 1013.6 0.0
08/09:00am WSW 13 30 - - - - 10 Partly cloudy - 17.5 1013.5 0.0
08/08:49am WSW 15 27 - - - - 10 Partly cloudy - 17.3 1013.5 0.0
08/08:30am W 10 16 - - - - 10 Partly cloudy - 17.0 1013.4 0.0
08/08:00am WSW 9 16 - - - - 10 Partly cloudy - 16.6 1013.4 0.0
08/07:30am NW 8 14 - - - - 10 Partly cloudy - 15.1 1012.8 0.0
08/07:00am WNW 7 12 - - - - 10 Partly cloudy - 14.3 1012.3 0.0
08/06:30am WNW 9 17 - - - - 10 Partly cloudy - 14.5 1012.1 0.0
08/06:00am NW 6 9 - - - - 10 Cloudy - 14.1 1012.0 0.0
08/05:30am NNW 6 12 - - - - 10 Cloudy - 14.4 1011.9 0.0
08/05:00am NNW 7 11 - - - - 10 Cloudy - 14.3 1012.2 0.0
08/04:30am NW 9 14 - - - - 10 Partly cloudy - 13.8 1012.1 0.0
08/04:00am WNW 10 15 - - - - 10 Mostly clear - 12.8 1012.1 0.0
08/03:30am WNW 9 14 - - - - 10 - - 12.2 1012.5 0.0
08/03:00am WNW 11 19 - - - - 10 - - 12.3 1012.8 0.0
08/02:30am WNW 11 15 - - - - 10 - - 11.7 1013.0 0.0
08/02:00am WNW 11 16 - - - - 10 - - 11.4 1013.6 0.0
08/01:30am WNW 6 11 - - - - 10 - - 10.9 1014.1 0.0
08/01:00am WNW 6 9 - - - - 10 - - 10.3 1014.9 0.0
08/12:30am WNW 5 7 - - - - 10 - - 10.1 1015.5 0.0
08/12:00am WNW 7 11 - - - - 10 - - 10.4 1016.0 0.0
 
Date/Time
EST
Wind Sea
Height
m
Swell Vis
km
Cloud Weather Temp
°C
Press
MSL
hPa
Rain since
9am
mm
Dir  Spd
kts
Gust
kts
Height
m
Period
s
Dir
07/11:30pm WNW 9 14 - - - - 10 - - 10.6 1016.1 0.0
07/11:00pm W 7 11 - - - - 10 - - 10.5 1016.6 0.0
07/10:30pm W 7 10 - - - - 10 - - 10.0 1016.9 0.0
07/10:00pm W 7 11 - - - - 10 - - 10.4 1017.3 0.0
07/09:30pm WNW 7 12 - - - - 10 - - 10.5 1017.4 0.0
07/09:00pm WNW 8 12 - - - - 10 Mostly cloudy - 10.7 1017.1 0.0
07/08:30pm WSW 10 16 - - - - 10 - - 10.9 1017.0 0.0
07/08:00pm W 9 14 - - - - 10 - - 10.6 1017.0 0.0
07/07:30pm W 13 19 - - - - 10 - - 10.7 1016.8 0.0
07/07:00pm W 11 18 - - - - 10 - - 10.6 1016.6 0.0
07/06:30pm WSW 10 15 - - - - 10 - - 10.6 1016.8 0.0
07/06:00pm WSW 9 15 - - - - 10 Cloudy - 10.5 1016.7 0.0
07/05:30pm WSW 11 18 - - - - 10 - - 10.8 1016.3 0.0
07/05:00pm WSW 11 23 - - - - 10 - - 11.3 1016.3 0.0

Other formats

Comma delimited format used in spreadsheet applications
http://www.bom.gov.au/fwo/IDN60701/IDN60701.95929.axf

JavaScript Object Notation format (JSON) in row-major order
http://www.bom.gov.au/fwo/IDN60701/IDN60701.95929.json

Data quality

Most of these data are generated automatically and are frequently updated. Quality checks on data are not normally performed. It is possible for incorrect values to appear. Refer to information at About Latest Weather Observations and please check the disclaimer before using these data.